createdAt,value
2022-08-28T00:00:44.999Z,23.56
2022-08-28T00:03:32.304Z,23.60
2022-08-28T00:06:18.873Z,23.61
2022-08-28T00:09:05.158Z,23.61
2022-08-28T00:11:50.487Z,23.63
2022-08-28T00:14:35.979Z,23.67
2022-08-28T00:17:21.229Z,23.69
2022-08-28T00:20:09.661Z,23.66
2022-08-28T00:22:55.731Z,23.70
2022-08-28T00:25:40.964Z,23.67
2022-08-28T00:28:26.942Z,23.66
2022-08-28T00:31:13.274Z,23.65
2022-08-28T00:33:58.467Z,23.64
2022-08-28T00:36:44.012Z,23.64
2022-08-28T00:39:29.519Z,23.65
2022-08-28T00:42:15.027Z,23.63
2022-08-28T00:45:00.552Z,23.62
2022-08-28T00:47:46.271Z,23.61
2022-08-28T00:50:52.880Z,23.57
2022-08-28T00:53:43.429Z,23.59
2022-08-28T00:56:31.766Z,23.58
2022-08-28T00:59:19.592Z,23.58
2022-08-28T01:02:07.137Z,23.58
2022-08-28T01:04:52.975Z,23.58
2022-08-28T01:07:39.484Z,23.53
2022-08-28T01:10:28.114Z,23.52
2022-08-28T01:13:14.986Z,23.54
2022-08-28T01:16:01.367Z,23.56
2022-08-28T01:18:48.514Z,23.54
2022-08-28T01:21:53.554Z,23.56
2022-08-28T01:24:40.251Z,23.54
2022-08-28T01:27:25.693Z,23.55
2022-08-28T01:30:14.217Z,23.52
2022-08-28T01:33:00.826Z,23.54
2022-08-28T01:35:48.135Z,23.54
2022-08-28T01:38:33.453Z,23.54
2022-08-28T01:41:19.338Z,23.54
2022-08-28T01:44:05.312Z,23.54
2022-08-28T01:46:53.157Z,23.54
2022-08-28T01:49:38.684Z,23.52
2022-08-28T01:52:26.288Z,23.54
2022-08-28T01:55:12.459Z,23.53
2022-08-28T01:57:58.318Z,23.51
2022-08-28T02:00:44.113Z,23.52
2022-08-28T02:03:29.692Z,23.52
2022-08-28T02:06:17.457Z,23.52
2022-08-28T02:09:02.779Z,23.48
2022-08-28T02:11:48.259Z,23.47
2022-08-28T02:14:33.749Z,23.49
2022-08-28T02:17:19.011Z,23.49
2022-08-28T02:20:06.794Z,23.48
2022-08-28T02:22:52.478Z,23.49
2022-08-28T02:25:37.822Z,23.45
2022-08-28T02:28:23.239Z,23.46
2022-08-28T02:31:09.482Z,23.43
2022-08-28T02:33:55.898Z,23.44
2022-08-28T02:36:42.663Z,23.42
2022-08-28T02:39:28.297Z,23.43
2022-08-28T02:42:13.712Z,23.44
2022-08-28T02:45:01.012Z,23.42
2022-08-28T02:47:47.506Z,23.38
2022-08-28T02:50:33.213Z,23.38
2022-08-28T02:53:18.280Z,23.39
2022-08-28T02:56:04.865Z,23.36
2022-08-28T02:58:50.629Z,23.36
2022-08-28T03:01:36.005Z,23.34
2022-08-28T03:04:21.577Z,23.36
2022-08-28T03:07:09.309Z,23.37
2022-08-28T03:09:56.602Z,23.33
2022-08-28T03:12:41.972Z,23.34
2022-08-28T03:15:27.340Z,23.36
2022-08-28T03:18:15.114Z,23.33
2022-08-28T03:21:01.321Z,23.36
2022-08-28T03:23:47.257Z,23.34
2022-08-28T03:26:32.677Z,23.33
2022-08-28T03:29:18.042Z,23.34
2022-08-28T03:32:03.793Z,23.33
2022-08-28T03:34:49.600Z,23.33
2022-08-28T03:37:35.669Z,23.30
2022-08-28T03:40:21.992Z,23.32
2022-08-28T03:43:07.783Z,23.31
2022-08-28T03:46:02.719Z,23.29
2022-08-28T03:48:48.259Z,23.24
2022-08-28T03:51:36.149Z,23.27
2022-08-28T03:54:21.554Z,23.24
2022-08-28T03:57:06.808Z,23.20
2022-08-28T03:59:53.394Z,23.20
2022-08-28T04:02:43.443Z,23.21
2022-08-28T04:05:29.063Z,23.24
2022-08-28T04:08:17.095Z,23.22
2022-08-28T04:11:03.193Z,23.23
2022-08-28T04:13:48.747Z,23.23
2022-08-28T04:16:34.238Z,23.23
2022-08-28T04:19:19.739Z,23.23
2022-08-28T04:22:05.329Z,23.26
2022-08-28T04:24:50.700Z,23.21
2022-08-28T04:27:36.144Z,23.28
2022-08-28T04:30:22.179Z,23.32
2022-08-28T04:33:08.521Z,23.37
2022-08-28T04:35:56.247Z,23.39
2022-08-28T04:38:44.029Z,23.41
2022-08-28T04:41:30.604Z,23.42
2022-08-28T04:44:16.618Z,23.47
2022-08-28T04:47:02.288Z,23.44
2022-08-28T04:49:47.940Z,23.47
2022-08-28T04:52:33.881Z,23.49
2022-08-28T04:55:33.804Z,23.48
2022-08-28T04:58:27.707Z,23.50
2022-08-28T05:01:18.924Z,23.50
2022-08-28T05:04:04.567Z,23.52
2022-08-28T05:06:49.974Z,23.54
2022-08-28T05:09:36.122Z,23.54
2022-08-28T05:12:22.222Z,23.56
2022-08-28T05:15:08.245Z,23.56
2022-08-28T05:17:54.020Z,23.58
2022-08-28T05:20:41.171Z,23.61
2022-08-28T05:23:26.700Z,23.60
2022-08-28T05:26:13.016Z,23.60
2022-08-28T05:28:59.927Z,23.62
2022-08-28T05:31:46.399Z,23.62
2022-08-28T05:34:32.273Z,23.64
2022-08-28T05:37:19.685Z,23.63
2022-08-28T05:40:05.774Z,23.65
2022-08-28T05:42:52.291Z,23.62
2022-08-28T05:45:38.252Z,23.62
2022-08-28T05:48:24.219Z,23.61
2022-08-28T05:51:14.786Z,23.64
2022-08-28T05:54:00.666Z,23.63
2022-08-28T05:56:47.159Z,23.64
2022-08-28T05:59:32.604Z,23.66
2022-08-28T06:02:17.980Z,23.67
2022-08-28T06:05:03.649Z,23.69
2022-08-28T06:07:52.523Z,23.70
2022-08-28T06:10:46.892Z,23.67
2022-08-28T06:13:37.567Z,23.71
2022-08-28T06:16:24.216Z,23.71
2022-08-28T06:19:11.846Z,23.69
2022-08-28T06:22:01.290Z,23.70
2022-08-28T06:24:52.539Z,23.72
2022-08-28T06:27:39.346Z,23.71
2022-08-28T06:30:24.715Z,23.71
2022-08-28T06:33:11.359Z,23.70
2022-08-28T06:35:57.555Z,23.72
2022-08-28T06:38:46.592Z,23.72
2022-08-28T06:41:33.320Z,23.72
2022-08-28T06:44:21.481Z,23.75
2022-08-28T06:47:07.319Z,23.73
2022-08-28T06:49:52.801Z,23.66
2022-08-28T06:52:38.479Z,23.72
2022-08-28T06:55:27.367Z,23.79
2022-08-28T06:58:13.114Z,23.81
2022-08-28T07:01:09.264Z,23.82
2022-08-28T07:03:59.260Z,23.84
2022-08-28T07:06:47.053Z,23.85
2022-08-28T07:09:32.597Z,23.85
2022-08-28T07:12:18.537Z,23.83
2022-08-28T07:15:05.260Z,23.83
2022-08-28T07:17:51.531Z,23.84
2022-08-28T07:20:36.904Z,23.80
2022-08-28T07:23:22.381Z,23.78
2022-08-28T07:26:12.432Z,23.77
2022-08-28T07:28:59.519Z,23.76
2022-08-28T07:31:57.533Z,23.77
2022-08-28T07:34:43.549Z,23.76
2022-08-28T07:37:29.383Z,23.77
2022-08-28T07:40:16.823Z,23.77
2022-08-28T07:43:22.312Z,23.76
2022-08-28T07:46:11.448Z,23.75
2022-08-28T07:48:59.038Z,23.75
2022-08-28T07:51:46.712Z,23.76
2022-08-28T07:54:35.988Z,23.74
2022-08-28T07:57:22.881Z,23.75
2022-08-28T08:00:10.972Z,23.78
2022-08-28T08:02:59.240Z,23.82
2022-08-28T08:05:59.524Z,23.80
2022-08-28T08:08:46.401Z,23.79
2022-08-28T08:11:32.578Z,23.76
2022-08-28T08:14:18.365Z,23.76
2022-08-28T08:17:04.768Z,23.71
2022-08-28T08:19:54.156Z,23.70
2022-08-28T08:22:39.516Z,23.70
2022-08-28T08:25:24.903Z,23.66
2022-08-28T08:28:10.066Z,23.64
2022-08-28T08:31:07.817Z,23.59
2022-08-28T08:33:57.237Z,23.58
2022-08-28T08:36:42.637Z,23.56
2022-08-28T08:39:28.082Z,23.55
2022-08-28T08:42:24.456Z,23.53
2022-08-28T08:45:13.731Z,23.50
2022-08-28T08:48:00.543Z,23.44
2022-08-28T08:50:47.013Z,23.40
2022-08-28T08:53:32.273Z,23.36
2022-08-28T08:56:21.679Z,23.35
2022-08-28T08:59:15.244Z,23.37
2022-08-28T09:02:26.366Z,23.35
2022-08-28T09:05:22.284Z,23.29
2022-08-28T09:08:13.099Z,23.28
2022-08-28T09:11:26.942Z,23.27
2022-08-28T09:14:26.864Z,23.23
2022-08-28T09:17:18.540Z,23.20
2022-08-28T09:20:09.579Z,23.20
2022-08-28T09:22:55.655Z,23.22
2022-08-28T09:25:52.027Z,23.18
2022-08-28T09:28:40.734Z,23.15
2022-08-28T09:31:38.668Z,23.14
2022-08-28T09:34:26.762Z,23.12
2022-08-28T09:37:26.892Z,23.11
2022-08-28T09:40:49.156Z,23.13
2022-08-28T09:43:36.719Z,23.13
2022-08-28T09:46:30.641Z,23.08
2022-08-28T09:49:23.846Z,23.05
2022-08-28T09:52:24.975Z,23.10
2022-08-28T09:55:16.047Z,23.12
2022-08-28T09:58:01.885Z,23.10
2022-08-28T10:01:08.187Z,23.09
2022-08-28T10:03:58.726Z,23.09
2022-08-28T10:06:48.513Z,23.06
2022-08-28T10:09:46.966Z,23.04
2022-08-28T10:12:52.515Z,23.07
2022-08-28T10:15:43.347Z,23.04
2022-08-28T10:18:44.352Z,23.05
2022-08-28T10:21:46.393Z,23.04
2022-08-28T10:25:03.166Z,23.05
2022-08-28T10:27:55.100Z,23.03
2022-08-28T10:31:09.586Z,23.05
2022-08-28T10:34:18.111Z,23.04
2022-08-28T10:37:17.030Z,23.03
2022-08-28T10:40:09.096Z,23.00
2022-08-28T10:43:10.784Z,23.00
2022-08-28T10:46:09.798Z,23.02
2022-08-28T10:49:11.923Z,23.04
2022-08-28T10:52:05.272Z,23.04
2022-08-28T10:55:34.677Z,23.04
2022-08-28T10:58:25.702Z,23.05
2022-08-28T11:01:27.496Z,23.06
2022-08-28T11:04:25.149Z,23.08
2022-08-28T11:07:15.267Z,23.09
2022-08-28T11:10:42.697Z,23.09
2022-08-28T11:13:41.708Z,23.08
2022-08-28T11:16:31.255Z,23.08
2022-08-28T11:19:17.404Z,23.09
2022-08-28T11:22:15.685Z,23.08
2022-08-28T11:25:15.180Z,23.09
2022-08-28T11:28:17.933Z,23.10
2022-08-28T11:31:06.405Z,23.10
2022-08-28T11:33:53.080Z,23.11
2022-08-28T11:36:38.633Z,23.10
2022-08-28T11:39:24.355Z,23.10
2022-08-28T11:42:09.570Z,23.11
2022-08-28T11:44:55.436Z,23.09
2022-08-28T11:47:46.789Z,23.11
2022-08-28T11:50:51.384Z,23.12
2022-08-28T11:53:54.776Z,23.13
2022-08-28T11:56:50.655Z,23.14
2022-08-28T12:00:03.101Z,23.13
2022-08-28T12:02:54.227Z,23.13
2022-08-28T12:05:46.410Z,23.15
2022-08-28T12:08:53.269Z,23.14
2022-08-28T12:11:44.045Z,23.13
2022-08-28T12:14:29.523Z,23.14
2022-08-28T12:17:14.808Z,23.17
2022-08-28T12:20:19.396Z,23.17
2022-08-28T12:23:23.411Z,23.18
2022-08-28T12:26:19.213Z,23.16
2022-08-28T12:29:25.455Z,23.19
2022-08-28T12:32:21.664Z,23.19
2022-08-28T12:35:17.588Z,23.19
2022-08-28T12:38:06.372Z,23.19
2022-08-28T12:40:53.431Z,23.22
2022-08-28T12:43:46.527Z,23.18
2022-08-28T12:46:36.276Z,23.22
2022-08-28T12:49:37.070Z,23.22
2022-08-28T12:52:25.881Z,23.20
2022-08-28T12:55:11.800Z,23.19
2022-08-28T12:57:57.646Z,23.19
2022-08-28T13:00:55.309Z,23.20
2022-08-28T13:03:52.995Z,23.18
2022-08-28T13:06:39.623Z,23.19
2022-08-28T13:09:27.907Z,23.20
2022-08-28T13:12:37.904Z,23.20
2022-08-28T13:15:50.694Z,23.18
2022-08-28T13:18:37.704Z,23.18
2022-08-28T13:21:33.019Z,23.15
2022-08-28T13:24:22.910Z,23.13
2022-08-28T13:27:15.120Z,23.12
2022-08-28T13:30:20.077Z,23.14
2022-08-28T13:33:23.191Z,23.15
2022-08-28T13:36:24.062Z,23.16
2022-08-28T13:39:09.818Z,23.09
2022-08-28T13:42:16.862Z,23.10
2022-08-28T13:45:02.689Z,23.09
2022-08-28T13:47:48.575Z,23.07
2022-08-28T13:50:33.863Z,23.04
2022-08-28T13:53:20.584Z,23.01
2022-08-28T13:56:06.622Z,23.03
2022-08-28T13:58:57.691Z,23.06
2022-08-28T14:02:03.262Z,23.06
2022-08-28T14:04:48.949Z,23.07
2022-08-28T14:07:34.653Z,23.09
2022-08-28T14:10:19.987Z,23.08
2022-08-28T14:13:05.431Z,23.08
2022-08-28T14:15:50.801Z,23.10
2022-08-28T14:18:36.291Z,23.12
2022-08-28T14:21:24.514Z,23.13
2022-08-28T14:24:10.345Z,23.12
2022-08-28T14:26:56.066Z,23.17
2022-08-28T14:29:41.890Z,23.14
2022-08-28T14:32:27.459Z,23.12
2022-08-28T14:35:13.258Z,23.11
2022-08-28T14:37:58.610Z,23.14
2022-08-28T14:40:45.048Z,23.14
2022-08-28T14:43:31.600Z,23.15
2022-08-28T14:46:28.678Z,23.17
2022-08-28T14:49:16.593Z,23.15
2022-08-28T14:52:02.004Z,23.14
2022-08-28T14:54:47.407Z,23.16
2022-08-28T14:57:32.732Z,23.17
2022-08-28T15:00:18.048Z,23.18
2022-08-28T15:03:03.466Z,23.17
2022-08-28T15:05:59.395Z,23.17
2022-08-28T15:08:46.680Z,23.15
2022-08-28T15:11:32.279Z,23.14
2022-08-28T15:14:17.664Z,23.14
2022-08-28T15:17:03.615Z,23.15
2022-08-28T15:19:49.112Z,23.15
2022-08-28T15:22:34.525Z,23.16
2022-08-28T15:25:19.866Z,23.15
2022-08-28T15:28:05.544Z,23.17
2022-08-28T15:30:51.242Z,23.16
2022-08-28T15:33:36.632Z,23.17
2022-08-28T15:36:22.221Z,23.14
2022-08-28T15:39:27.606Z,23.17
2022-08-28T15:42:14.299Z,23.18
2022-08-28T15:45:00.161Z,23.17
2022-08-28T15:47:46.296Z,23.19
2022-08-28T15:50:31.753Z,23.21
2022-08-28T15:53:18.189Z,23.20
2022-08-28T15:56:04.293Z,23.22
2022-08-28T15:58:52.115Z,23.24
2022-08-28T16:01:38.887Z,23.22
2022-08-28T16:04:24.507Z,23.24
2022-08-28T16:07:09.893Z,23.24
2022-08-28T16:09:55.147Z,23.30
2022-08-28T16:12:41.280Z,23.30
2022-08-28T16:15:26.873Z,23.33
2022-08-28T16:18:16.337Z,23.37
2022-08-28T16:21:13.797Z,23.39
2022-08-28T16:24:04.872Z,23.39
2022-08-28T16:26:50.519Z,23.42
2022-08-28T16:29:35.872Z,23.44
2022-08-28T16:32:23.443Z,23.46
2022-08-28T16:35:09.799Z,23.48
2022-08-28T16:37:55.149Z,23.49
2022-08-28T16:40:45.700Z,23.53
2022-08-28T16:43:31.325Z,23.56
2022-08-28T16:46:22.578Z,23.57
2022-08-28T16:49:08.229Z,23.58
2022-08-28T16:51:53.623Z,23.62
2022-08-28T16:54:46.063Z,23.59
2022-08-28T16:57:34.995Z,23.56
2022-08-28T17:00:21.445Z,23.56
2022-08-28T17:03:10.761Z,23.57
2022-08-28T17:05:57.088Z,23.57
2022-08-28T17:08:42.788Z,23.59
2022-08-28T17:11:29.034Z,23.58
2022-08-28T17:14:14.797Z,23.60
2022-08-28T17:17:00.669Z,23.61
2022-08-28T17:19:46.282Z,23.63
2022-08-28T17:22:32.174Z,23.62
2022-08-28T17:25:17.848Z,23.62
2022-08-28T17:28:03.765Z,23.65
2022-08-28T17:30:49.891Z,23.65
2022-08-28T17:33:39.564Z,23.65
2022-08-28T17:36:33.483Z,23.64
2022-08-28T17:39:21.645Z,23.65
2022-08-28T17:42:07.770Z,23.68
2022-08-28T17:44:53.317Z,23.68
2022-08-28T17:47:39.379Z,23.69
2022-08-28T17:50:24.669Z,23.65
2022-08-28T17:53:10.357Z,23.66
2022-08-28T17:55:56.295Z,23.68
2022-08-28T17:58:42.108Z,23.64
2022-08-28T18:01:27.763Z,23.61
2022-08-28T18:04:18.950Z,23.60
2022-08-28T18:07:10.044Z,23.59
2022-08-28T18:09:56.941Z,23.57
2022-08-28T18:12:42.743Z,23.58
2022-08-28T18:15:29.303Z,23.57
2022-08-28T18:18:15.481Z,23.57
2022-08-28T18:21:02.352Z,23.54
2022-08-28T18:23:47.886Z,23.52
2022-08-28T18:26:34.344Z,23.52
2022-08-28T18:29:19.864Z,23.53
2022-08-28T18:32:07.669Z,23.55
2022-08-28T18:34:54.003Z,23.51
2022-08-28T18:37:39.644Z,23.52
2022-08-28T18:40:26.122Z,23.52
2022-08-28T18:43:12.699Z,23.52
2022-08-28T18:46:00.676Z,23.52
2022-08-28T18:48:47.284Z,23.50
2022-08-28T18:51:32.979Z,23.46
2022-08-28T18:54:19.891Z,23.43
2022-08-28T18:57:06.263Z,23.44
2022-08-28T18:59:52.868Z,23.41
2022-08-28T19:02:41.667Z,23.39
2022-08-28T19:05:27.285Z,23.37
2022-08-28T19:08:14.399Z,23.38
2022-08-28T19:11:00.110Z,23.37
2022-08-28T19:13:45.553Z,23.33
2022-08-28T19:16:32.280Z,23.33
2022-08-28T19:19:17.877Z,23.31
2022-08-28T19:22:03.168Z,23.30
2022-08-28T19:24:49.722Z,23.29
2022-08-28T19:27:36.038Z,23.28
2022-08-28T19:30:21.536Z,23.28
2022-08-28T19:33:07.360Z,23.28
2022-08-28T19:35:53.336Z,23.27
2022-08-28T19:38:38.799Z,23.27
2022-08-28T19:41:24.235Z,23.28
2022-08-28T19:44:10.565Z,23.26
2022-08-28T19:46:55.921Z,23.27
2022-08-28T19:49:41.226Z,23.27
2022-08-28T19:52:26.835Z,23.26
2022-08-28T19:55:19.277Z,23.26
2022-08-28T19:58:06.669Z,23.24
2022-08-28T20:00:52.768Z,23.24
2022-08-28T20:03:40.216Z,23.21
2022-08-28T20:06:27.363Z,23.17
2022-08-28T20:09:13.300Z,23.19
2022-08-28T20:12:00.770Z,23.20
2022-08-28T20:14:46.514Z,23.20
2022-08-28T20:17:32.143Z,23.19
2022-08-28T20:20:23.774Z,23.19
2022-08-28T20:23:11.550Z,23.19
2022-08-28T20:25:57.193Z,23.16
2022-08-28T20:28:42.435Z,23.16
2022-08-28T20:31:27.891Z,23.14
2022-08-28T20:34:14.776Z,23.13
2022-08-28T20:37:00.074Z,23.13
2022-08-28T20:39:45.400Z,23.11
2022-08-28T20:42:31.796Z,23.12
2022-08-28T20:45:19.030Z,23.09
2022-08-28T20:48:04.556Z,23.11
2022-08-28T20:50:50.812Z,23.09
2022-08-28T20:53:40.947Z,23.09
2022-08-28T20:56:26.307Z,23.05
2022-08-28T20:59:11.392Z,23.04
2022-08-28T21:01:57.536Z,23.02
2022-08-28T21:04:45.599Z,23.04
2022-08-28T21:07:33.423Z,23.04
2022-08-28T21:10:18.633Z,23.03
2022-08-28T21:13:04.516Z,23.05
2022-08-28T21:15:49.753Z,23.04
2022-08-28T21:18:36.167Z,23.03
2022-08-28T21:21:21.257Z,23.03
2022-08-28T21:24:09.786Z,23.00
2022-08-28T21:26:55.253Z,23.00
2022-08-28T21:29:42.214Z,23.01
2022-08-28T21:32:29.900Z,23.00
2022-08-28T21:35:16.349Z,22.99
2022-08-28T21:38:01.506Z,23.01
2022-08-28T21:40:46.851Z,22.97
2022-08-28T21:43:32.431Z,22.98
2022-08-28T21:46:18.070Z,22.99
2022-08-28T21:49:03.249Z,22.98
2022-08-28T21:51:48.724Z,22.96
2022-08-28T21:54:34.601Z,22.97
2022-08-28T21:57:20.085Z,22.94
2022-08-28T22:00:13.390Z,22.94
2022-08-28T22:02:58.541Z,22.96
2022-08-28T22:05:45.484Z,22.93
2022-08-28T22:08:31.306Z,22.94
2022-08-28T22:11:24.794Z,22.92
2022-08-28T22:14:11.112Z,22.94
2022-08-28T22:16:56.822Z,22.92
2022-08-28T22:19:42.893Z,22.89
2022-08-28T22:22:50.536Z,22.91
2022-08-28T22:25:42.559Z,22.91
2022-08-28T22:28:27.812Z,22.90
2022-08-28T22:31:13.931Z,22.89
2022-08-28T22:33:59.340Z,22.87
2022-08-28T22:36:44.782Z,22.88
2022-08-28T22:39:30.273Z,22.89
2022-08-28T22:42:15.616Z,22.90
2022-08-28T22:45:01.103Z,22.89
2022-08-28T22:47:49.872Z,22.87
2022-08-28T22:50:35.031Z,22.87
2022-08-28T22:53:21.018Z,22.84
2022-08-28T22:56:06.550Z,22.86
2022-08-28T22:58:52.114Z,22.86
2022-08-28T23:01:40.567Z,22.83
2022-08-28T23:04:26.680Z,22.83
2022-08-28T23:07:12.134Z,22.82
2022-08-28T23:09:59.056Z,22.80
2022-08-28T23:12:44.335Z,22.80
2022-08-28T23:15:30.007Z,22.80
2022-08-28T23:18:16.710Z,22.79
2022-08-28T23:21:06.009Z,22.78
2022-08-28T23:23:51.717Z,22.79
2022-08-28T23:26:36.946Z,22.79
2022-08-28T23:29:22.113Z,22.80
2022-08-28T23:32:07.502Z,22.77
2022-08-28T23:34:56.144Z,22.80
2022-08-28T23:37:44.556Z,22.78
2022-08-28T23:40:34.179Z,22.78
2022-08-28T23:43:20.169Z,22.79
2022-08-28T23:46:06.564Z,22.78
2022-08-28T23:48:51.794Z,22.78
2022-08-28T23:51:37.549Z,22.79
2022-08-28T23:54:22.975Z,22.79
2022-08-28T23:57:08.407Z,22.78
2022-08-28T23:59:56.138Z,22.78
